Time;durP1;ratioP1;P1;durP2;ratioP2;P2;SDS_P1;SDS_P2;PMS_P1;PMS_P2;Temp;Humidity;BMP_temperature;BMP_pressure;BME280_temperature;BME280_humidity;BME280_pressure;Samples;Min_cycle;Max_cycle;Signal;HPM_P1;HPM_P2
2023/08/11 00:04:22;;;;;;;;;;;16.40;99.90;;;;;;20911520;28;19920;-78
2023/08/11 00:14:23;;;;;;;;;;;16.40;99.90;;;;;;20908596;28;20379;-77
2023/08/11 00:24:23;;;;;;;;;;;16.00;99.90;;;;;;20909145;28;19917;-78
2023/08/11 00:34:24;;;;;;;;;;;16.00;99.90;;;;;;20925949;28;19969;-79
2023/08/11 00:44:26;;;;;;;;;;;16.10;99.90;;;;;;20925785;28;19921;-78
2023/08/11 00:54:27;;;;;;;;;;;16.00;99.90;;;;;;20925270;28;20295;-78
2023/08/11 01:04:27;;;;;;;;;;;15.80;99.90;;;;;;20861365;28;19917;-78
2023/08/11 01:14:40;;;;;;;;;;;15.50;99.90;;;;;;20853089;28;19936;-78
2023/08/11 01:24:42;;;;;;;;;;;15.40;99.90;;;;;;20857051;28;19917;-78
2023/08/11 01:34:43;;;;;;;;;;;15.40;99.90;;;;;;20924191;28;19921;-78
2023/08/11 01:44:44;;;;;;;;;;;15.40;99.90;;;;;;20886712;28;19963;-78
2023/08/11 01:54:45;;;;;;;;;;;15.30;99.90;;;;;;20856830;28;19920;-78
2023/08/11 02:04:45;;;;;;;;;;;15.30;99.90;;;;;;20925048;28;19960;-79
2023/08/11 02:14:46;;;;;;;;;;;15.10;99.90;;;;;;20956248;28;19913;-79
2023/08/11 02:24:47;;;;;;;;;;;15.00;99.90;;;;;;20922719;28;19997;-78
2023/08/11 02:34:48;;;;;;;;;;;14.90;99.90;;;;;;20920255;28;19928;-78
2023/08/11 02:44:49;;;;;;;;;;;14.70;99.90;;;;;;20932480;28;19917;-79
2023/08/11 02:54:50;;;;;;;;;;;14.70;99.90;;;;;;20933943;28;19919;-79
2023/08/11 03:04:50;;;;;;;;;;;14.70;99.90;;;;;;20929807;28;19917;-79
2023/08/11 03:14:52;;;;;;;;;;;14.60;99.90;;;;;;20951396;28;19920;-79
2023/08/11 03:24:53;;;;;;;;;;;14.60;99.90;;;;;;20932077;28;19920;-78
2023/08/11 03:34:54;;;;;;;;;;;14.40;99.90;;;;;;20931682;28;19923;-79
2023/08/11 03:44:54;;;;;;;;;;;14.40;99.90;;;;;;20928921;28;19916;-78
2023/08/11 03:54:56;;;;;;;;;;;14.30;99.90;;;;;;20926296;28;19913;-79
2023/08/11 04:04:57;;;;;;;;;;;13.90;99.90;;;;;;20922373;28;19971;-78
2023/08/11 04:14:58;;;;;;;;;;;14.00;99.90;;;;;;20904336;28;20026;-79
2023/08/11 04:24:59;;;;;;;;;;;14.10;99.90;;;;;;20925538;28;19924;-79
2023/08/11 04:34:59;;;;;;;;;;;14.10;99.90;;;;;;20927716;28;19994;-79
2023/08/11 04:45:00;;;;;;;;;;;14.50;99.90;;;;;;20932746;28;20291;-79
2023/08/11 04:55:03;;;;;;;;;;;14.60;99.90;;;;;;20940183;28;19913;-80
2023/08/11 05:05:05;;;;;;;;;;;14.70;99.90;;;;;;20949780;28;19916;-79
2023/08/11 05:15:06;;;;;;;;;;;15.00;99.90;;;;;;20929503;28;19917;-78
2023/08/11 05:25:07;;;;;;;;;;;15.30;99.90;;;;;;20954030;28;20323;-80
2023/08/11 05:35:08;;;;;;;;;;;15.70;99.90;;;;;;21002169;22;19924;-77
2023/08/11 05:45:09;;;;;;;;;;;16.00;99.90;;;;;;20890930;28;20343;-77
2023/08/11 05:55:10;;;;;;;;;;;16.40;99.90;;;;;;20905993;28;19913;-77
2023/08/11 06:05:12;;;;;;;;;;;16.80;99.90;;;;;;20897165;28;19959;-75
2023/08/11 06:15:12;;;;;;;;;;;17.30;99.90;;;;;;20889695;28;19913;-76
2023/08/11 06:25:16;;;;;;;;;;;17.80;99.90;;;;;;20907545;28;19917;-77
2023/08/11 06:35:17;;;;;;;;;;;18.20;99.90;;;;;;20885439;28;19943;-73
2023/08/11 06:45:17;;;;;;;;;;;18.50;99.90;;;;;;20882613;28;20008;-72
2023/08/11 06:55:18;;;;;;;;;;;19.10;99.90;;;;;;20872251;28;19943;-73
2023/08/11 07:05:19;;;;;;;;;;;19.70;99.90;;;;;;20884102;28;19970;-73
2023/08/11 07:15:19;;;;;;;;;;;20.00;99.90;;;;;;20881781;28;19939;-73
2023/08/11 07:25:20;;;;;;;;;;;20.40;99.90;;;;;;20886265;28;19917;-74
2023/08/11 07:35:23;;;;;;;;;;;21.30;99.90;;;;;;20883083;28;20383;-73
2023/08/11 07:45:24;;;;;;;;;;;21.80;99.90;;;;;;20888998;28;19917;-73
2023/08/11 07:55:24;;;;;;;;;;;22.70;99.90;;;;;;20883703;28;20007;-73
2023/08/11 08:05:25;;;;;;;;;;;23.20;99.90;;;;;;20864315;28;19920;-73
2023/08/11 08:15:28;;;;;;;;;;;24.60;99.90;;;;;;20869062;28;20402;-74
2023/08/11 08:25:28;;;;;;;;;;;24.80;99.90;;;;;;20865541;28;19953;-74
2023/08/11 08:35:29;;;;;;;;;;;25.50;99.90;;;;;;20891939;28;19924;-76
2023/08/11 08:45:30;;;;;;;;;;;25.70;99.90;;;;;;20874583;28;19925;-74
2023/08/11 08:55:31;;;;;;;;;;;25.70;99.90;;;;;;20883642;28;19920;-74
2023/08/11 09:05:31;;;;;;;;;;;26.70;99.90;;;;;;20881252;28;19928;-74
2023/08/11 09:15:32;;;;;;;;;;;27.80;99.90;;;;;;20861272;28;19913;-74
2023/08/11 09:25:33;;;;;;;;;;;27.50;99.90;;;;;;20880801;28;19917;-74
2023/08/11 09:35:34;;;;;;;;;;;27.60;99.90;;;;;;20897692;28;19971;-75
2023/08/11 09:45:35;;;;;;;;;;;29.40;99.90;;;;;;20921889;28;19950;-76
2023/08/11 09:55:38;;;;;;;;;;;29.80;99.90;;;;;;20931900;28;19917;-76
2023/08/11 10:05:42;;;;;;;;;;;30.50;99.90;;;;;;20928477;28;19917;-76
2023/08/11 10:15:43;;;;;;;;;;;31.20;99.90;;;;;;20935631;28;20016;-74
2023/08/11 10:25:45;;;;;;;;;;;31.40;99.90;;;;;;20878970;28;19923;-76
2023/08/11 10:35:45;;;;;;;;;;;30.90;99.90;;;;;;20894934;28;19920;-76
2023/08/11 10:45:46;;;;;;;;;;;31.70;99.90;;;;;;20902888;28;19948;-78
2023/08/11 10:56:02;;;;;;;;;;;30.50;99.90;;;;;;20907540;28;19959;-79
2023/08/11 11:06:04;;;;;;;;;;;30.10;99.90;;;;;;20912897;28;19959;-79
2023/08/11 11:16:05;;;;;;;;;;;30.80;99.90;;;;;;20909233;28;19959;-79
2023/08/11 11:26:06;;;;;;;;;;;30.20;99.90;;;;;;20901110;28;19921;-75
2023/08/11 11:36:07;;;;;;;;;;;30.20;99.90;;;;;;20877524;28;19920;-74
2023/08/11 11:46:17;;;;;;;;;;;30.80;99.90;;;;;;20872658;28;19949;-76
2023/08/11 11:56:18;;;;;;;;;;;30.20;99.90;;;;;;20882478;28;19936;-75
2023/08/11 12:06:19;;;;;;;;;;;30.70;99.90;;;;;;20839062;28;19921;-75
2023/08/11 12:16:20;;;;;;;;;;;30.50;99.90;;;;;;20863571;28;19967;-75
2023/08/11 12:26:21;;;;;;;;;;;30.80;99.90;;;;;;20869406;28;19927;-74
2023/08/11 12:36:21;;;;;;;;;;;31.20;99.90;;;;;;20902693;28;19962;-74
2023/08/11 12:46:22;;;;;;;;;;;30.60;99.90;;;;;;20886569;28;19917;-75
2023/08/11 12:56:23;;;;;;;;;;;31.50;99.90;;;;;;20849950;28;20395;-74
2023/08/11 13:06:23;;;;;;;;;;;32.40;95.70;;;;;;20905464;28;19924;-75
2023/08/11 13:16:24;;;;;;;;;;;32.60;93.50;;;;;;20881398;28;19968;-74
2023/08/11 13:26:25;;;;;;;;;;;32.00;93.20;;;;;;20888616;28;20299;-77
2023/08/11 13:36:26;;;;;;;;;;;31.70;94.80;;;;;;20852793;28;19917;-76
2023/08/11 13:46:27;;;;;;;;;;;31.30;94.10;;;;;;20873873;28;19944;-77
2023/08/11 13:56:27;;;;;;;;;;;32.10;93.70;;;;;;20896911;28;20367;-76
2023/08/11 14:06:28;;;;;;;;;;;32.40;94.20;;;;;;20913449;28;19917;-75
2023/08/11 14:16:29;;;;;;;;;;;32.60;94.60;;;;;;20903925;28;19913;-75
2023/08/11 14:26:29;;;;;;;;;;;33.00;94.10;;;;;;20917571;28;20391;-75
2023/08/11 14:36:30;;;;;;;;;;;32.80;92.40;;;;;;20898999;28;20129;-75
2023/08/11 14:46:30;;;;;;;;;;;32.70;92.20;;;;;;20926146;28;19923;-76
2023/08/11 14:56:31;;;;;;;;;;;32.80;89.00;;;;;;20891209;28;19975;-76
2023/08/11 15:06:32;;;;;;;;;;;32.60;88.50;;;;;;20914532;28;19963;-76
2023/08/11 15:16:32;;;;;;;;;;;32.10;90.00;;;;;;20858044;28;19928;-76
2023/08/11 15:26:33;;;;;;;;;;;32.30;89.10;;;;;;20845569;28;19917;-77
2023/08/11 15:36:34;;;;;;;;;;;32.20;85.80;;;;;;20906331;28;19913;-77
2023/08/11 15:46:34;;;;;;;;;;;31.80;90.40;;;;;;20894371;28;19947;-77
2023/08/11 15:56:35;;;;;;;;;;;31.60;89.60;;;;;;20887529;28;19932;-75
2023/08/11 16:06:35;;;;;;;;;;;31.50;89.50;;;;;;20898641;28;20012;-75
2023/08/11 16:16:36;;;;;;;;;;;31.00;91.40;;;;;;20904079;28;19956;-75
2023/08/11 16:26:40;;;;;;;;;;;30.40;90.10;;;;;;20873583;28;19949;-76
2023/08/11 16:36:40;;;;;;;;;;;30.10;89.80;;;;;;20887989;28;20357;-75
2023/08/11 16:46:41;;;;;;;;;;;29.90;90.50;;;;;;20897120;28;19952;-75
2023/08/11 16:56:42;;;;;;;;;;;29.90;91.00;;;;;;20865666;28;19952;-75
2023/08/11 17:06:42;;;;;;;;;;;29.70;90.80;;;;;;20871128;28;20016;-75
2023/08/11 17:16:43;;;;;;;;;;;29.60;89.60;;;;;;20872006;28;19964;-75
2023/08/11 17:26:44;;;;;;;;;;;29.40;90.50;;;;;;20863493;28;20269;-75
2023/08/11 17:36:44;;;;;;;;;;;29.30;91.80;;;;;;20865583;28;19971;-75
2023/08/11 17:46:45;;;;;;;;;;;29.10;92.70;;;;;;20821752;28;19917;-75
2023/08/11 17:56:45;;;;;;;;;;;28.50;96.30;;;;;;20884337;28;19913;-75
2023/08/11 18:06:46;;;;;;;;;;;27.70;99.90;;;;;;20869481;28;19974;-75
2023/08/11 18:16:47;;;;;;;;;;;27.10;99.90;;;;;;20890229;28;20061;-75
2023/08/11 18:26:48;;;;;;;;;;;26.50;99.90;;;;;;20924162;28;19924;-74
2023/08/11 18:36:48;;;;;;;;;;;26.10;99.90;;;;;;20917149;28;19913;-73
2023/08/11 18:46:49;;;;;;;;;;;25.70;99.90;;;;;;20915440;28;19975;-74
2023/08/11 18:56:50;;;;;;;;;;;24.60;99.90;;;;;;20914540;28;19913;-74
2023/08/11 19:06:50;;;;;;;;;;;24.20;99.90;;;;;;20914122;28;19916;-74
2023/08/11 19:16:51;;;;;;;;;;;23.40;99.90;;;;;;20914976;28;19920;-75
2023/08/11 19:26:52;;;;;;;;;;;23.20;99.90;;;;;;20881450;28;19916;-74
2023/08/11 19:36:53;;;;;;;;;;;22.50;99.90;;;;;;20912772;28;19920;-75
2023/08/11 19:46:54;;;;;;;;;;;22.10;99.90;;;;;;20911456;28;19917;-75
2023/08/11 19:56:54;;;;;;;;;;;21.80;99.90;;;;;;20911024;28;20358;-74
2023/08/11 20:06:55;;;;;;;;;;;21.60;99.90;;;;;;20906779;28;19917;-74
2023/08/11 20:16:56;;;;;;;;;;;21.50;99.90;;;;;;20890330;28;19912;-73
2023/08/11 20:26:56;;;;;;;;;;;20.70;99.90;;;;;;20885489;28;20244;-74
2023/08/11 20:36:57;;;;;;;;;;;20.50;99.90;;;;;;20890434;28;19919;-74
2023/08/11 20:46:59;;;;;;;;;;;20.10;99.90;;;;;;20860189;28;19920;-73
2023/08/11 20:57:00;;;;;;;;;;;20.00;99.90;;;;;;20863353;28;19955;-74
2023/08/11 21:07:01;;;;;;;;;;;19.80;99.90;;;;;;20835056;28;20396;-74
2023/08/11 21:17:03;;;;;;;;;;;19.60;99.90;;;;;;20823263;28;20316;-74
2023/08/11 21:27:04;;;;;;;;;;;19.40;99.90;;;;;;20884965;28;20004;-74
2023/08/11 21:37:04;;;;;;;;;;;19.40;99.90;;;;;;20920483;28;19956;-74
2023/08/11 21:47:05;;;;;;;;;;;18.80;99.90;;;;;;20907488;28;19917;-73
2023/08/11 21:57:10;;;;;;;;;;;18.90;99.90;;;;;;20929526;28;19913;-73
2023/08/11 22:07:11;;;;;;;;;;;18.40;99.90;;;;;;20919420;28;19924;-74
2023/08/11 22:17:13;;;;;;;;;;;18.40;99.90;;;;;;20918555;28;19920;-74
2023/08/11 22:27:14;;;;;;;;;;;18.40;99.90;;;;;;20917852;28;20605;-74
2023/08/11 22:37:17;;;;;;;;;;;18.30;99.90;;;;;;20891154;28;19951;-74
2023/08/11 22:47:18;;;;;;;;;;;18.10;99.90;;;;;;20886746;28;20306;-73
2023/08/11 22:57:20;;;;;;;;;;;17.90;99.90;;;;;;20887261;28;20286;-74
2023/08/11 23:07:22;;;;;;;;;;;17.80;99.90;;;;;;20913999;28;20411;-73
2023/08/11 23:17:23;;;;;;;;;;;17.90;99.90;;;;;;20914549;28;19956;-74
2023/08/11 23:27:30;;;;;;;;;;;17.90;99.90;;;;;;20909297;28;19927;-74
2023/08/11 23:37:30;;;;;;;;;;;17.60;99.90;;;;;;20902974;28;19927;-74
2023/08/11 23:47:33;;;;;;;;;;;17.50;99.90;;;;;;20903140;28;19932;-75
2023/08/11 23:57:35;;;;;;;;;;;17.50;99.90;;;;;;20916301;28;19939;-74
